createdAt,value
2023-04-18T00:03:59.855Z,66.22
2023-04-18T00:09:01.669Z,67.17
2023-04-18T00:14:12.300Z,67.45
2023-04-18T00:19:18.366Z,67.88
2023-04-18T00:24:22.633Z,67.33
2023-04-18T00:29:24.278Z,66.82
2023-04-18T00:34:29.164Z,67.63
2023-04-18T00:39:31.290Z,68.71
2023-04-18T00:44:33.056Z,69.56
2023-04-18T00:49:38.498Z,69.20
2023-04-18T00:54:40.726Z,68.33
2023-04-18T00:59:47.243Z,69.55
2023-04-18T01:04:50.192Z,69.44
2023-04-18T01:09:52.839Z,68.93
2023-04-18T01:14:57.233Z,69.48
2023-04-18T01:20:12.945Z,71.29
2023-04-18T01:25:32.253Z,72.07
2023-04-18T01:30:34.377Z,72.66
2023-04-18T01:35:41.511Z,72.25
2023-04-18T01:40:44.840Z,71.42
2023-04-18T01:45:46.565Z,70.82
2023-04-18T01:50:50.113Z,70.25
2023-04-18T01:56:03.182Z,70.57
2023-04-18T02:01:05.039Z,70.71
2023-04-18T02:06:07.397Z,71.34
2023-04-18T02:11:22.159Z,71.44
2023-04-18T02:16:24.107Z,71.59
2023-04-18T02:21:32.265Z,72.48
2023-04-18T02:26:35.229Z,72.88
2023-04-18T02:31:44.214Z,72.84
2023-04-18T02:36:57.658Z,73.55
2023-04-18T02:42:00.664Z,74.08
2023-04-18T02:47:02.306Z,74.83
2023-04-18T02:52:04.650Z,75.61
2023-04-18T02:57:10.645Z,75.04
2023-04-18T03:02:15.145Z,75.59
2023-04-18T03:07:24.223Z,75.54
2023-04-18T03:12:31.866Z,76.37
2023-04-18T03:17:34.508Z,77.39
2023-04-18T03:22:37.945Z,77.30
2023-04-18T03:27:41.208Z,77.76
2023-04-18T03:32:51.032Z,78.11
2023-04-18T03:37:56.290Z,78.11
2023-04-18T03:43:08.510Z,78.09
2023-04-18T03:48:12.241Z,78.18
2023-04-18T03:53:17.765Z,77.52
2023-04-18T03:58:22.090Z,77.25
2023-04-18T04:03:26.020Z,78.82
2023-04-18T04:08:29.206Z,79.36
2023-04-18T04:13:34.257Z,80.03
2023-04-18T04:18:36.332Z,79.93
2023-04-18T04:23:38.149Z,79.49
2023-04-18T04:28:41.589Z,79.88
2023-04-18T04:33:46.250Z,80.17
2023-04-18T04:38:54.752Z,80.00
2023-04-18T04:44:09.273Z,79.72
2023-04-18T04:49:15.935Z,79.27
2023-04-18T04:54:19.734Z,79.18
2023-04-18T04:59:26.839Z,78.79
2023-04-18T05:04:29.165Z,78.13
2023-04-18T05:09:30.919Z,76.00
2023-04-18T05:14:33.908Z,74.63
2023-04-18T05:19:35.527Z,74.15
2023-04-18T05:24:39.873Z,72.69
2023-04-18T05:29:50.382Z,72.72
2023-04-18T05:34:54.588Z,71.65
2023-04-18T05:39:56.832Z,70.98
2023-04-18T05:45:08.280Z,70.61
2023-04-18T05:50:13.055Z,70.11
2023-04-18T05:55:14.647Z,70.27
2023-04-18T06:00:20.557Z,70.25
2023-04-18T06:05:24.606Z,69.83
2023-04-18T06:10:26.468Z,69.54
2023-04-18T06:15:32.352Z,69.37
2023-04-18T06:20:37.665Z,67.37
2023-04-18T06:25:42.457Z,67.92
2023-04-18T06:30:49.862Z,66.77
2023-04-18T06:35:51.501Z,68.10
2023-04-18T06:40:53.422Z,67.11
2023-04-18T06:45:56.568Z,66.63
2023-04-18T06:50:58.338Z,67.27
2023-04-18T06:56:02.204Z,67.51
2023-04-18T07:01:07.624Z,67.44
2023-04-18T07:06:11.552Z,67.99
2023-04-18T07:11:13.291Z,67.41
2023-04-18T07:16:21.630Z,67.93
2023-04-18T07:21:23.126Z,67.28
2023-04-18T07:26:29.855Z,67.31
2023-04-18T07:31:33.006Z,68.58
2023-04-18T07:36:34.763Z,67.27
2023-04-18T07:41:39.023Z,66.76
2023-04-18T07:46:42.179Z,66.66
2023-04-18T07:51:43.794Z,65.44
2023-04-18T07:56:45.442Z,65.99
2023-04-18T08:01:51.646Z,65.78
2023-04-18T08:07:02.123Z,66.39
2023-04-18T08:12:04.183Z,66.28
2023-04-18T08:17:12.544Z,66.02
2023-04-18T08:22:14.261Z,66.49
2023-04-18T08:27:15.922Z,66.16
2023-04-18T08:32:19.151Z,66.02
2023-04-18T08:37:20.885Z,64.96
2023-04-18T08:42:23.497Z,65.82
2023-04-18T08:47:28.803Z,65.16
2023-04-18T08:52:32.348Z,64.22
2023-04-18T08:57:36.980Z,63.53
2023-04-18T09:02:41.346Z,63.72
2023-04-18T09:07:43.185Z,62.54
2023-04-18T09:12:50.247Z,61.44
2023-04-18T09:17:54.937Z,60.38
2023-04-18T09:22:58.932Z,57.64
2023-04-18T09:28:03.561Z,55.00
2023-04-18T09:33:08.471Z,55.79
2023-04-18T09:38:10.554Z,55.61
2023-04-18T09:43:21.498Z,54.04
2023-04-18T09:48:27.941Z,53.55
2023-04-18T09:53:32.164Z,53.14
2023-04-18T09:58:41.220Z,53.64
2023-04-18T10:03:47.859Z,53.71
2023-04-18T10:08:51.879Z,50.88
2023-04-18T10:13:55.988Z,51.67
2023-04-18T10:19:24.870Z,52.11
2023-04-18T10:24:48.724Z,50.33
2023-04-18T10:29:51.890Z,51.68
2023-04-18T10:34:58.413Z,51.73
2023-04-18T10:40:01.029Z,48.65
2023-04-18T10:45:18.758Z,49.07
2023-04-18T10:50:22.040Z,49.97
2023-04-18T10:55:29.637Z,54.60
2023-04-18T11:00:33.297Z,52.68
2023-04-18T11:05:39.206Z,54.11
2023-04-18T11:10:41.456Z,54.33
2023-04-18T11:15:43.102Z,54.39
2023-04-18T11:20:50.820Z,53.03
2023-04-18T11:25:54.705Z,51.09
2023-04-18T11:31:00.671Z,51.65
2023-04-18T11:36:12.325Z,51.70
2023-04-18T11:41:15.601Z,53.88
2023-04-18T11:46:22.007Z,53.20
2023-04-18T11:51:36.123Z,54.09
2023-04-18T11:56:48.181Z,52.49
2023-04-18T12:02:15.573Z,54.33
2023-04-18T12:07:43.320Z,52.83
2023-04-18T12:12:50.999Z,52.41
2023-04-18T12:17:56.681Z,53.69
2023-04-18T12:23:03.849Z,52.82
2023-04-18T12:28:19.050Z,52.87
2023-04-18T12:33:23.866Z,52.01
2023-04-18T12:38:37.466Z,52.52
2023-04-18T12:43:39.393Z,53.82
2023-04-18T12:48:46.778Z,55.34
2023-04-18T12:53:52.712Z,56.65
2023-04-18T12:58:57.171Z,54.58
2023-04-18T13:04:10.633Z,55.54
2023-04-18T13:09:15.264Z,56.86
2023-04-18T13:14:19.933Z,54.77
2023-04-18T13:19:21.663Z,54.38
2023-04-18T13:24:27.035Z,54.48
2023-04-18T13:29:28.778Z,53.75
2023-04-18T13:34:34.181Z,54.24
2023-04-18T13:39:37.257Z,51.63
2023-04-18T13:44:43.905Z,46.44
2023-04-18T13:49:48.131Z,46.84
2023-04-18T13:54:56.584Z,47.38
2023-04-18T14:00:00.760Z,47.13
2023-04-18T14:05:02.762Z,53.26
2023-04-18T14:10:07.929Z,53.92
2023-04-18T14:15:10.537Z,54.53
2023-04-18T14:20:16.844Z,53.82
2023-04-18T14:25:20.218Z,53.19
2023-04-18T14:30:23.551Z,51.98
2023-04-18T14:35:27.957Z,51.40
2023-04-18T14:40:33.634Z,49.85
2023-04-18T14:45:39.939Z,52.47
2023-04-18T14:50:46.306Z,50.43
2023-04-18T14:55:56.804Z,52.40
2023-04-18T15:00:58.514Z,52.35
2023-04-18T15:06:08.109Z,53.04
2023-04-18T15:11:13.368Z,53.55
2023-04-18T15:16:22.326Z,53.66
2023-04-18T15:21:27.515Z,54.70
2023-04-18T15:26:32.934Z,53.00
2023-04-18T15:31:35.839Z,54.66
2023-04-18T15:36:39.994Z,53.98
2023-04-18T15:41:45.974Z,53.37
2023-04-18T15:46:57.212Z,52.56
2023-04-18T15:51:58.912Z,53.10
2023-04-18T15:57:03.791Z,54.13
2023-04-18T16:02:06.757Z,54.59
2023-04-18T16:07:10.610Z,53.14
2023-04-18T16:12:13.592Z,52.83
2023-04-18T16:17:20.423Z,54.45
2023-04-18T16:22:22.137Z,54.29
2023-04-18T16:27:28.322Z,55.31
2023-04-18T16:32:34.713Z,55.28
2023-04-18T16:37:43.334Z,56.17
2023-04-18T16:42:48.569Z,55.65
2023-04-18T16:47:53.354Z,55.37
2023-04-18T16:52:55.090Z,56.23
2023-04-18T16:57:58.111Z,55.92
2023-04-18T17:03:05.296Z,55.85
2023-04-18T17:08:12.275Z,55.92
2023-04-18T17:13:18.255Z,56.30
2023-04-18T17:18:19.931Z,57.47
2023-04-18T17:23:21.772Z,56.84
2023-04-18T17:28:29.782Z,56.88
2023-04-18T17:33:34.542Z,57.34
2023-04-18T17:38:36.232Z,57.55
2023-04-18T17:43:39.540Z,58.27
2023-04-18T17:48:41.264Z,58.62
2023-04-18T17:53:48.271Z,58.17
2023-04-18T17:58:56.466Z,57.78
2023-04-18T18:03:58.845Z,58.51
2023-04-18T18:09:03.641Z,58.57
2023-04-18T18:14:14.357Z,58.47
2023-04-18T18:19:17.950Z,59.23
2023-04-18T18:24:19.681Z,59.40
2023-04-18T18:29:30.713Z,59.13
2023-04-18T18:34:32.371Z,60.28
2023-04-18T18:39:34.159Z,60.64
2023-04-18T18:44:48.280Z,60.60
2023-04-18T18:49:49.936Z,61.41
2023-04-18T18:54:52.809Z,61.26
2023-04-18T18:59:58.805Z,61.74
2023-04-18T19:05:00.734Z,61.83
2023-04-18T19:10:05.603Z,61.98
2023-04-18T19:15:10.066Z,61.86
2023-04-18T19:20:11.813Z,62.35
2023-04-18T19:25:15.952Z,62.31
2023-04-18T19:30:19.374Z,62.85
2023-04-18T19:35:31.125Z,63.14
2023-04-18T19:40:33.370Z,63.03
2023-04-18T19:45:45.040Z,63.61
2023-04-18T19:50:50.568Z,63.73
2023-04-18T19:55:56.569Z,63.87
2023-04-18T20:01:03.166Z,63.98
2023-04-18T20:06:06.091Z,63.88
2023-04-18T20:11:12.053Z,64.42
2023-04-18T20:16:21.305Z,64.55
2023-04-18T20:21:25.717Z,64.61
2023-04-18T20:26:30.000Z,64.89
2023-04-18T20:31:36.018Z,64.82
2023-04-18T20:36:37.824Z,65.17
2023-04-18T20:41:42.805Z,65.03
2023-04-18T20:46:45.884Z,65.83
2023-04-18T20:51:49.681Z,65.73
2023-04-18T20:56:58.425Z,65.50
2023-04-18T21:02:01.662Z,65.08
2023-04-18T21:07:04.169Z,65.94
2023-04-18T21:12:08.725Z,65.49
2023-04-18T21:17:11.816Z,65.45
2023-04-18T21:22:18.663Z,65.83
2023-04-18T21:27:20.319Z,65.99
2023-04-18T21:32:26.166Z,66.24
2023-04-18T21:37:28.172Z,66.83
2023-04-18T21:42:29.946Z,66.98
2023-04-18T21:47:33.267Z,66.92
2023-04-18T21:52:37.627Z,67.15
2023-04-18T21:57:39.232Z,67.75
2023-04-18T22:02:42.445Z,68.01
2023-04-18T22:07:58.244Z,68.40
2023-04-18T22:13:00.499Z,69.24
2023-04-18T22:18:08.089Z,69.53
2023-04-18T22:23:10.031Z,69.27
2023-04-18T22:28:11.714Z,68.84
2023-04-18T22:33:17.194Z,69.24
2023-04-18T22:38:30.766Z,69.31
2023-04-18T22:43:50.595Z,69.04
2023-04-18T22:48:53.581Z,68.64
2023-04-18T22:53:58.164Z,68.45
2023-04-18T22:59:02.474Z,68.56
2023-04-18T23:04:05.949Z,69.04
2023-04-18T23:09:07.784Z,69.22
2023-04-18T23:14:12.100Z,68.58
2023-04-18T23:19:20.936Z,68.94
2023-04-18T23:24:22.583Z,68.99
2023-04-18T23:29:36.590Z,69.39
2023-04-18T23:34:39.858Z,69.28
2023-04-18T23:39:41.497Z,69.30
2023-04-18T23:44:58.789Z,69.86
2023-04-18T23:50:04.323Z,70.02
2023-04-18T23:55:06.729Z,69.57
